createdAt,value
2018-12-19T00:00:52.260Z,1.40
2018-12-19T00:02:54.857Z,1.40
2018-12-19T00:04:57.446Z,1.40
2018-12-19T00:07:00.080Z,1.40
2018-12-19T00:09:03.301Z,1.40
2018-12-19T00:11:06.248Z,1.40
2018-12-19T00:13:10.824Z,1.40
2018-12-19T00:15:13.492Z,1.30
2018-12-19T00:17:16.119Z,1.30
2018-12-19T00:19:18.720Z,1.40
2018-12-19T00:21:21.370Z,1.40
2018-12-19T00:23:23.984Z,1.40
2018-12-19T00:25:26.559Z,1.40
2018-12-19T00:27:29.221Z,1.40
2018-12-19T00:29:31.818Z,1.40
2018-12-19T00:31:34.423Z,1.40
2018-12-19T00:33:37.056Z,1.40
2018-12-19T00:35:40.452Z,1.40
2018-12-19T00:37:43.128Z,1.40
2018-12-19T00:39:45.743Z,1.40
2018-12-19T00:41:48.358Z,1.40
2018-12-19T00:43:51.044Z,1.40
2018-12-19T00:45:53.617Z,1.40
2018-12-19T00:47:56.236Z,1.40
2018-12-19T00:49:58.938Z,1.40
2018-12-19T00:52:02.214Z,1.40
2018-12-19T00:54:04.790Z,1.40
2018-12-19T00:56:07.362Z,1.40
2018-12-19T00:58:10.624Z,1.50
2018-12-19T01:00:16.906Z,1.50
2018-12-19T01:02:19.553Z,1.50
2018-12-19T01:04:22.135Z,1.50
2018-12-19T01:06:24.789Z,1.50
2018-12-19T01:08:27.403Z,1.50
2018-12-19T01:10:30.079Z,1.50
2018-12-19T01:12:32.950Z,1.50
2018-12-19T01:14:35.556Z,1.50
2018-12-19T01:16:38.142Z,1.50
2018-12-19T01:18:40.741Z,1.50
2018-12-19T01:20:43.318Z,1.50
2018-12-19T01:22:45.947Z,1.50
2018-12-19T01:24:48.539Z,1.50
2018-12-19T01:26:51.166Z,1.50
2018-12-19T01:28:53.823Z,1.50
2018-12-19T01:30:57.692Z,1.50
2018-12-19T01:33:02.075Z,1.50
2018-12-19T01:35:04.844Z,1.50
2018-12-19T01:37:07.469Z,1.50
2018-12-19T01:39:10.175Z,1.60
2018-12-19T01:41:12.781Z,1.60
2018-12-19T01:43:15.702Z,1.60
2018-12-19T01:45:19.096Z,1.60
2018-12-19T01:47:21.697Z,1.60
2018-12-19T01:49:24.285Z,1.60
2018-12-19T01:51:27.078Z,1.60
2018-12-19T01:53:29.828Z,1.60
2018-12-19T01:55:32.419Z,1.60
2018-12-19T01:57:35.044Z,1.60
2018-12-19T01:59:38.056Z,1.60
2018-12-19T02:01:40.739Z,1.60
2018-12-19T02:03:43.366Z,1.60
2018-12-19T02:05:45.981Z,1.70
2018-12-19T02:07:48.610Z,1.70
2018-12-19T02:09:51.186Z,1.80
2018-12-19T02:11:53.770Z,1.90
2018-12-19T02:13:56.386Z,1.90
2018-12-19T02:15:58.960Z,1.90
2018-12-19T02:18:02.390Z,1.80
2018-12-19T02:20:05.518Z,1.80
2018-12-19T02:22:08.129Z,1.80
2018-12-19T02:24:10.772Z,1.80
2018-12-19T02:26:13.371Z,1.80
2018-12-19T02:28:16.020Z,1.80
2018-12-19T02:30:18.602Z,1.80
2018-12-19T02:32:21.175Z,1.80
2018-12-19T02:34:23.778Z,1.80
2018-12-19T02:36:26.556Z,1.80
2018-12-19T02:38:29.214Z,1.80
2018-12-19T02:40:31.880Z,1.80
2018-12-19T02:42:34.455Z,1.80
2018-12-19T02:44:37.049Z,1.80
2018-12-19T02:46:39.638Z,1.80
2018-12-19T02:48:42.255Z,1.80
2018-12-19T02:50:44.846Z,1.80
2018-12-19T02:52:47.430Z,1.80
2018-12-19T02:54:50.973Z,1.80
2018-12-19T02:56:53.604Z,1.80
2018-12-19T02:58:56.239Z,1.80
2018-12-19T03:00:58.998Z,1.80
2018-12-19T03:03:01.589Z,1.80
2018-12-19T03:05:04.830Z,1.80
2018-12-19T03:07:07.428Z,1.80
2018-12-19T03:09:10.063Z,1.80
2018-12-19T03:11:12.706Z,1.80
2018-12-19T03:13:15.305Z,1.80
2018-12-19T03:15:17.980Z,1.80
2018-12-19T03:17:20.666Z,1.80
2018-12-19T03:19:23.315Z,1.90
2018-12-19T03:21:25.928Z,1.90
2018-12-19T03:23:28.532Z,1.90
2018-12-19T03:25:31.182Z,1.90
2018-12-19T03:27:35.608Z,2.00
2018-12-19T03:29:38.982Z,2.00
2018-12-19T03:31:41.550Z,2.00
2018-12-19T03:33:44.127Z,2.00
2018-12-19T03:35:46.798Z,2.10
2018-12-19T03:37:49.372Z,2.10
2018-12-19T03:39:54.975Z,2.00
2018-12-19T03:41:59.305Z,2.00
2018-12-19T03:44:01.915Z,2.00
2018-12-19T03:46:04.623Z,2.00
2018-12-19T03:48:09.225Z,2.00
2018-12-19T03:50:11.917Z,2.00
2018-12-19T03:52:14.484Z,2.00
2018-12-19T03:54:17.411Z,1.90
2018-12-19T03:56:20.048Z,2.00
2018-12-19T03:58:22.630Z,2.00
2018-12-19T04:00:25.232Z,2.00
2018-12-19T04:02:27.846Z,2.00
2018-12-19T04:04:30.629Z,2.00
2018-12-19T04:06:33.236Z,2.00
2018-12-19T04:08:35.872Z,2.00
2018-12-19T04:10:38.501Z,2.00
2018-12-19T04:12:41.452Z,2.10
2018-12-19T04:14:44.393Z,2.10
2018-12-19T04:16:47.232Z,2.10
2018-12-19T04:18:50.050Z,2.10
2018-12-19T04:20:53.639Z,2.20
2018-12-19T04:22:58.529Z,2.20
2018-12-19T04:25:01.107Z,2.10
2018-12-19T04:27:03.768Z,2.10
2018-12-19T04:29:06.340Z,2.20
2018-12-19T04:31:09.285Z,2.20
2018-12-19T04:33:11.915Z,2.20
2018-12-19T04:35:14.505Z,2.40
2018-12-19T04:37:17.203Z,2.50
2018-12-19T04:39:19.834Z,2.60
2018-12-19T04:41:22.464Z,2.80
2018-12-19T04:43:25.061Z,3.10
2018-12-19T04:45:27.676Z,3.30
2018-12-19T04:47:30.329Z,3.50
2018-12-19T04:49:32.935Z,3.50
2018-12-19T04:51:35.612Z,3.50
2018-12-19T04:53:38.315Z,3.50
2018-12-19T04:55:40.985Z,3.40
2018-12-19T04:57:43.773Z,3.30
2018-12-19T04:59:46.412Z,3.20
2018-12-19T05:01:49.089Z,3.10
2018-12-19T05:03:51.771Z,3.10
2018-12-19T05:05:54.463Z,3.10
2018-12-19T05:07:57.472Z,3.00
2018-12-19T05:10:00.524Z,3.00
2018-12-19T05:12:03.230Z,2.90
2018-12-19T05:14:05.881Z,2.90
2018-12-19T05:16:08.600Z,2.80
2018-12-19T05:18:11.279Z,2.80
2018-12-19T05:20:14.081Z,2.70
2018-12-19T05:22:16.820Z,2.70
2018-12-19T05:24:19.776Z,2.70
2018-12-19T05:26:22.474Z,2.70
2018-12-19T05:28:25.130Z,2.70
2018-12-19T05:30:27.775Z,2.70
2018-12-19T05:32:30.422Z,2.80
2018-12-19T05:34:33.057Z,3.10
2018-12-19T05:36:35.743Z,3.30
2018-12-19T05:38:38.379Z,3.50
2018-12-19T05:40:41.067Z,3.50
2018-12-19T05:42:43.766Z,3.50
2018-12-19T05:44:46.437Z,3.50
2018-12-19T05:46:49.144Z,3.60
2018-12-19T05:48:51.794Z,3.60
2018-12-19T05:50:54.413Z,3.60
2018-12-19T05:52:57.114Z,3.70
2018-12-19T05:55:00.176Z,3.70
2018-12-19T05:57:03.166Z,3.70
2018-12-19T05:59:05.866Z,3.70
2018-12-19T06:01:08.472Z,3.70
2018-12-19T06:03:11.140Z,3.70
2018-12-19T06:05:13.795Z,3.80
2018-12-19T06:07:16.482Z,3.80
2018-12-19T06:09:19.121Z,3.80
2018-12-19T06:11:21.736Z,3.80
2018-12-19T06:13:24.401Z,3.90
2018-12-19T06:15:27.052Z,3.90
2018-12-19T06:17:29.724Z,4.10
2018-12-19T06:19:32.350Z,4.20
2018-12-19T06:21:35.029Z,4.30
2018-12-19T06:23:37.647Z,4.50
2018-12-19T06:25:40.230Z,4.60
2018-12-19T06:27:42.839Z,4.70
2018-12-19T06:29:45.435Z,4.80
2018-12-19T06:31:48.030Z,4.80
2018-12-19T06:33:50.780Z,4.80
2018-12-19T06:35:53.999Z,4.90
2018-12-19T06:37:56.592Z,5.00
2018-12-19T06:39:59.184Z,5.00
2018-12-19T06:42:01.843Z,5.00
2018-12-19T06:44:04.517Z,5.00
2018-12-19T06:46:07.095Z,5.10
2018-12-19T06:48:09.692Z,5.10
2018-12-19T06:50:12.264Z,5.10
2018-12-19T06:52:14.851Z,5.20
2018-12-19T06:54:17.429Z,5.20
2018-12-19T06:56:20.880Z,5.20
2018-12-19T06:58:23.484Z,5.30
2018-12-19T07:00:26.055Z,5.30
2018-12-19T07:02:28.658Z,5.30
2018-12-19T07:04:31.252Z,5.30
2018-12-19T07:06:33.854Z,5.40
2018-12-19T07:08:37.310Z,5.30
2018-12-19T07:10:39.954Z,5.30
2018-12-19T07:12:42.557Z,5.30
2018-12-19T07:14:46.353Z,5.30
2018-12-19T07:16:49.008Z,5.30
2018-12-19T07:18:51.611Z,5.30
2018-12-19T07:20:54.434Z,5.30
2018-12-19T07:22:57.033Z,5.40
2018-12-19T07:24:59.588Z,5.40
2018-12-19T07:27:03.202Z,5.30
2018-12-19T07:29:05.862Z,5.30
2018-12-19T07:31:08.456Z,5.30
2018-12-19T07:33:11.323Z,5.30
2018-12-19T07:35:13.888Z,5.30
2018-12-19T07:37:16.526Z,5.30
2018-12-19T07:39:19.117Z,5.40
2018-12-19T07:41:21.694Z,5.30
2018-12-19T07:43:24.287Z,5.40
2018-12-19T07:45:26.889Z,5.50
2018-12-19T07:47:29.512Z,5.60
2018-12-19T07:49:32.087Z,5.60
2018-12-19T07:51:34.659Z,5.70
2018-12-19T07:53:37.258Z,5.80
2018-12-19T07:55:40.496Z,5.80
2018-12-19T07:57:43.670Z,5.80
2018-12-19T07:59:46.242Z,5.80
2018-12-19T08:01:48.822Z,5.80
2018-12-19T08:03:51.459Z,5.80
2018-12-19T08:05:54.059Z,5.90
2018-12-19T08:07:56.900Z,5.90
2018-12-19T08:10:00.616Z,5.90
2018-12-19T08:12:03.206Z,5.90
2018-12-19T08:14:05.807Z,5.90
2018-12-19T08:16:08.376Z,5.90
2018-12-19T08:18:10.980Z,6.00
2018-12-19T08:20:13.668Z,6.00
2018-12-19T08:22:16.291Z,6.00
2018-12-19T08:24:19.393Z,6.10
2018-12-19T08:26:22.016Z,6.10
2018-12-19T08:28:24.682Z,6.00
2018-12-19T08:30:27.334Z,6.00
2018-12-19T08:32:30.079Z,6.00
2018-12-19T08:34:32.735Z,6.00
2018-12-19T08:36:35.374Z,6.00
2018-12-19T08:38:38.089Z,6.00
2018-12-19T08:40:40.820Z,6.00
2018-12-19T08:42:43.869Z,5.90
2018-12-19T08:44:46.608Z,5.90
2018-12-19T08:46:49.293Z,5.90
2018-12-19T08:48:52.537Z,6.00
2018-12-19T08:50:55.192Z,5.90
2018-12-19T08:52:58.087Z,5.90
2018-12-19T08:55:01.433Z,5.90
2018-12-19T08:57:06.819Z,5.90
2018-12-19T08:59:09.480Z,5.90
2018-12-19T09:01:12.175Z,5.90
2018-12-19T09:03:14.863Z,5.90
2018-12-19T09:05:17.542Z,6.00
2018-12-19T09:07:20.274Z,6.00
2018-12-19T09:09:23.083Z,6.10
2018-12-19T09:11:25.977Z,6.00
2018-12-19T09:13:28.770Z,6.00
2018-12-19T09:15:52.105Z,6.00
2018-12-19T09:17:54.799Z,6.00
2018-12-19T09:19:57.783Z,6.00
2018-12-19T09:22:00.957Z,6.00
2018-12-19T09:24:03.652Z,6.10
2018-12-19T09:26:06.311Z,6.10
2018-12-19T09:28:09.089Z,6.10
2018-12-19T09:30:12.149Z,6.10
2018-12-19T09:32:14.800Z,6.00
2018-12-19T09:34:17.473Z,6.10
2018-12-19T09:36:20.125Z,6.10
2018-12-19T09:38:22.893Z,6.10
2018-12-19T09:40:25.573Z,6.10
2018-12-19T09:42:28.250Z,6.10
2018-12-19T09:44:31.037Z,6.20
2018-12-19T09:46:34.617Z,6.20
2018-12-19T09:48:37.543Z,6.20
2018-12-19T09:50:40.177Z,6.30
2018-12-19T09:52:44.815Z,6.30
2018-12-19T09:54:47.544Z,6.30
2018-12-19T09:56:50.376Z,6.30
2018-12-19T09:58:53.157Z,6.30
2018-12-19T10:00:57.205Z,6.30
2018-12-19T10:03:00.247Z,6.30
2018-12-19T10:05:03.413Z,6.30
2018-12-19T10:07:06.090Z,6.30
2018-12-19T10:09:14.525Z,6.50
2018-12-19T10:11:18.712Z,6.50
2018-12-19T10:13:18.127Z,6.60
2018-12-19T10:15:20.832Z,6.50
2018-12-19T10:17:23.651Z,6.60
2018-12-19T10:19:26.836Z,6.60
2018-12-19T10:21:29.540Z,6.70
2018-12-19T10:23:32.831Z,6.70
2018-12-19T10:25:35.492Z,6.80
2018-12-19T10:27:38.190Z,6.80
2018-12-19T10:29:41.615Z,6.90
2018-12-19T10:31:44.242Z,6.90
2018-12-19T10:33:46.942Z,6.90
2018-12-19T10:35:49.574Z,7.00
2018-12-19T10:37:52.283Z,7.00
2018-12-19T10:39:54.932Z,7.10
2018-12-19T10:41:57.606Z,7.10
2018-12-19T10:44:01.606Z,7.20
2018-12-19T10:46:04.469Z,7.20
2018-12-19T10:48:07.170Z,7.20
2018-12-19T10:50:09.966Z,7.20
2018-12-19T10:52:12.622Z,7.30
2018-12-19T10:54:15.388Z,7.40
2018-12-19T10:56:19.369Z,7.40
2018-12-19T10:58:22.186Z,7.50
2018-12-19T11:00:31.009Z,7.50
2018-12-19T11:02:33.634Z,7.60
2018-12-19T11:04:36.279Z,7.60
2018-12-19T11:06:38.884Z,7.60
2018-12-19T11:08:41.511Z,7.60
2018-12-19T11:10:45.168Z,7.70
2018-12-19T11:12:48.358Z,7.70
2018-12-19T11:14:51.043Z,7.80
2018-12-19T11:16:53.686Z,7.90
2018-12-19T11:18:56.323Z,8.10
2018-12-19T11:20:59.005Z,8.20
2018-12-19T11:23:01.636Z,8.40
2018-12-19T11:25:05.335Z,8.60
2018-12-19T11:27:08.013Z,8.80
2018-12-19T11:29:11.524Z,8.80
2018-12-19T11:31:14.163Z,8.80
2018-12-19T11:33:16.729Z,8.70
2018-12-19T11:35:19.348Z,8.60
2018-12-19T11:37:22.774Z,8.70
2018-12-19T11:39:25.349Z,8.70
2018-12-19T11:41:28.040Z,8.70
2018-12-19T11:43:30.708Z,8.70
2018-12-19T11:45:36.809Z,8.60
2018-12-19T11:47:39.386Z,8.60
2018-12-19T11:49:42.360Z,8.60
2018-12-19T11:51:44.995Z,8.50
2018-12-19T11:53:47.665Z,8.50
2018-12-19T11:55:51.233Z,8.50
2018-12-19T11:57:54.715Z,8.50
2018-12-19T11:59:57.360Z,8.50
2018-12-19T12:02:00.053Z,8.50
2018-12-19T12:04:04.056Z,8.50
2018-12-19T12:06:07.457Z,8.50
2018-12-19T12:08:10.041Z,8.50
2018-12-19T12:10:12.911Z,8.40
2018-12-19T12:12:15.511Z,8.40
2018-12-19T12:14:18.111Z,8.40
2018-12-19T12:16:20.753Z,8.40
2018-12-19T12:18:23.339Z,8.30
2018-12-19T12:20:25.917Z,8.30
2018-12-19T12:22:28.536Z,8.30
2018-12-19T12:24:31.246Z,8.30
2018-12-19T12:26:33.922Z,8.30
2018-12-19T12:28:36.547Z,8.30
2018-12-19T12:30:39.158Z,8.30
2018-12-19T12:32:41.797Z,8.20
2018-12-19T12:34:44.428Z,8.10
2018-12-19T12:36:47.743Z,8.20
2018-12-19T12:38:50.424Z,8.20
2018-12-19T12:40:53.113Z,8.10
2018-12-19T12:42:55.739Z,8.10
2018-12-19T12:44:58.594Z,8.10
2018-12-19T12:47:01.752Z,8.10
2018-12-19T12:49:04.715Z,8.10
2018-12-19T12:51:07.439Z,8.20
2018-12-19T12:53:10.144Z,8.20
2018-12-19T12:55:12.894Z,8.20
2018-12-19T12:57:17.383Z,8.10
2018-12-19T12:59:19.976Z,8.20
2018-12-19T13:01:22.582Z,8.10
2018-12-19T13:03:25.351Z,8.20
2018-12-19T13:05:28.003Z,8.10
2018-12-19T13:07:31.522Z,8.20
2018-12-19T13:09:34.303Z,8.20
2018-12-19T13:11:36.887Z,8.10
2018-12-19T13:13:39.549Z,8.10
2018-12-19T13:15:44.170Z,8.20
2018-12-19T13:17:48.730Z,8.20
2018-12-19T13:19:51.369Z,8.20
2018-12-19T13:21:53.994Z,8.10
2018-12-19T13:23:57.385Z,8.10
2018-12-19T13:25:59.994Z,8.10
2018-12-19T13:28:02.876Z,8.10
2018-12-19T13:30:07.572Z,8.10
2018-12-19T13:32:10.485Z,8.10
2018-12-19T13:34:13.096Z,8.10
2018-12-19T13:36:15.824Z,8.10
2018-12-19T13:38:18.509Z,8.10
2018-12-19T13:40:21.084Z,8.20
2018-12-19T13:42:24.209Z,8.20
2018-12-19T13:44:27.621Z,8.20
2018-12-19T13:46:31.682Z,8.20
2018-12-19T13:48:35.579Z,8.20
2018-12-19T13:50:39.547Z,8.20
2018-12-19T13:52:44.345Z,8.10
2018-12-19T13:54:48.474Z,8.10
2018-12-19T13:56:51.200Z,8.20
2018-12-19T13:58:53.868Z,8.20
2018-12-19T14:00:56.544Z,8.20
2018-12-19T14:02:59.151Z,8.20
2018-12-19T14:05:01.796Z,8.30
2018-12-19T14:07:05.411Z,8.30
2018-12-19T14:09:08.204Z,8.40
2018-12-19T14:11:10.963Z,8.40
2018-12-19T14:13:14.987Z,8.50
2018-12-19T14:15:17.644Z,8.50
2018-12-19T14:17:20.275Z,8.60
2018-12-19T14:19:23.507Z,8.60
2018-12-19T14:21:26.159Z,8.60
2018-12-19T14:23:28.806Z,8.60
2018-12-19T14:25:31.458Z,8.50
2018-12-19T14:27:34.158Z,8.50
2018-12-19T14:29:36.797Z,8.50
2018-12-19T14:31:39.457Z,8.50
2018-12-19T14:33:42.159Z,8.50
2018-12-19T14:35:44.789Z,8.60
2018-12-19T14:37:47.429Z,8.50
2018-12-19T14:39:50.061Z,8.60
2018-12-19T14:41:52.656Z,8.50
2018-12-19T14:43:55.350Z,8.50
2018-12-19T14:45:57.907Z,8.50
2018-12-19T14:48:00.489Z,8.40
2018-12-19T14:50:03.525Z,8.40
2018-12-19T14:52:07.707Z,8.30
2018-12-19T14:54:11.090Z,8.30
2018-12-19T14:56:13.699Z,8.30
2018-12-19T14:58:16.308Z,8.20
2018-12-19T15:00:19.259Z,8.20
2018-12-19T15:02:21.845Z,8.20
2018-12-19T15:04:24.474Z,8.10
2018-12-19T15:06:27.079Z,8.00
2018-12-19T15:08:29.683Z,8.00
2018-12-19T15:10:32.747Z,8.00
2018-12-19T15:12:35.761Z,7.90
2018-12-19T15:14:39.224Z,7.90
2018-12-19T15:16:41.807Z,7.90
2018-12-19T15:18:44.407Z,8.00
2018-12-19T15:20:48.305Z,7.90
2018-12-19T15:22:50.902Z,7.90
2018-12-19T15:24:53.523Z,7.80
2018-12-19T15:26:56.125Z,7.80
2018-12-19T15:28:58.937Z,7.80
2018-12-19T15:31:01.607Z,7.80
2018-12-19T15:33:04.233Z,7.80
2018-12-19T15:35:06.986Z,7.80
2018-12-19T15:37:09.557Z,7.80
2018-12-19T15:39:12.266Z,7.70
2018-12-19T15:41:14.847Z,7.70
2018-12-19T15:43:17.517Z,7.70
2018-12-19T15:45:20.123Z,7.70
2018-12-19T15:47:22.767Z,7.70
2018-12-19T15:49:26.080Z,7.80
2018-12-19T15:51:28.669Z,7.70
2018-12-19T15:53:31.233Z,7.70
2018-12-19T15:55:33.912Z,7.60
2018-12-19T15:57:36.578Z,7.50
2018-12-19T15:59:39.771Z,7.50
2018-12-19T16:01:44.166Z,7.40
2018-12-19T16:03:46.797Z,7.40
2018-12-19T16:05:49.437Z,7.30
2018-12-19T16:07:52.000Z,7.30
2018-12-19T16:09:54.680Z,7.20
2018-12-19T16:11:57.275Z,7.20
2018-12-19T16:13:59.838Z,7.10
2018-12-19T16:16:02.546Z,7.10
2018-12-19T16:18:05.602Z,7.10
2018-12-19T16:20:10.026Z,7.00
2018-12-19T16:22:12.664Z,7.00
2018-12-19T16:24:15.279Z,6.90
2018-12-19T16:26:18.031Z,6.90
2018-12-19T16:28:21.594Z,6.80
2018-12-19T16:30:24.225Z,6.80
2018-12-19T16:32:26.827Z,6.80
2018-12-19T16:34:29.402Z,6.70
2018-12-19T16:36:32.056Z,6.70
2018-12-19T16:38:34.991Z,6.60
2018-12-19T16:40:37.720Z,6.60
2018-12-19T16:42:45.890Z,6.50
2018-12-19T16:44:45.054Z,6.50
2018-12-19T16:46:48.004Z,6.50
2018-12-19T16:48:50.586Z,6.50
2018-12-19T16:50:54.311Z,6.40
2018-12-19T16:52:56.993Z,6.40
2018-12-19T16:54:59.667Z,6.40
2018-12-19T16:57:13.635Z,6.30
2018-12-19T16:59:16.238Z,6.30
2018-12-19T17:01:21.418Z,6.30
2018-12-19T17:03:23.999Z,6.30
2018-12-19T17:05:27.878Z,6.30
2018-12-19T17:07:30.470Z,6.30
2018-12-19T17:09:33.071Z,6.30
2018-12-19T17:11:35.743Z,6.30
2018-12-19T17:13:38.863Z,6.30
2018-12-19T17:15:41.965Z,6.30
2018-12-19T17:17:44.556Z,6.30
2018-12-19T17:19:47.226Z,6.30
2018-12-19T17:21:49.915Z,6.30
2018-12-19T17:23:52.556Z,6.30
2018-12-19T17:25:55.170Z,6.30
2018-12-19T17:27:57.786Z,6.30
2018-12-19T17:30:00.359Z,6.30
2018-12-19T17:32:03.153Z,6.20
2018-12-19T17:34:05.754Z,6.20
2018-12-19T17:36:08.387Z,6.20
2018-12-19T17:38:10.981Z,6.30
2018-12-19T17:40:13.741Z,6.30
2018-12-19T17:42:16.532Z,6.30
2018-12-19T17:44:19.113Z,6.30
2018-12-19T17:46:21.755Z,6.20
2018-12-19T17:48:24.364Z,6.20
2018-12-19T17:50:27.664Z,6.10
2018-12-19T17:52:30.306Z,6.10
2018-12-19T17:54:32.883Z,6.10
2018-12-19T17:56:35.566Z,6.00
2018-12-19T17:58:38.139Z,6.00
2018-12-19T18:00:40.747Z,6.00
2018-12-19T18:02:43.361Z,6.00
2018-12-19T18:04:45.986Z,6.00
2018-12-19T18:06:48.583Z,6.00
2018-12-19T18:08:51.162Z,5.90
2018-12-19T18:10:53.860Z,5.90
2018-12-19T18:12:56.489Z,5.90
2018-12-19T18:14:59.084Z,5.90
2018-12-19T18:17:01.759Z,5.90
2018-12-19T18:19:04.738Z,6.00
2018-12-19T18:21:07.437Z,5.90
2018-12-19T18:23:10.070Z,5.90
2018-12-19T18:25:12.671Z,5.90
2018-12-19T18:27:16.103Z,5.90
2018-12-19T18:29:18.692Z,5.90
2018-12-19T18:31:21.335Z,5.90
2018-12-19T18:33:23.965Z,5.80
2018-12-19T18:35:27.136Z,5.80
2018-12-19T18:37:29.808Z,5.80
2018-12-19T18:39:32.413Z,5.70
2018-12-19T18:41:34.983Z,5.70
2018-12-19T18:43:37.663Z,5.70
2018-12-19T18:45:41.853Z,5.60
2018-12-19T18:47:44.472Z,5.60
2018-12-19T18:49:47.049Z,5.60
2018-12-19T18:51:49.635Z,5.60
2018-12-19T18:53:53.264Z,5.70
2018-12-19T18:55:55.875Z,5.70
2018-12-19T18:57:58.507Z,5.80
2018-12-19T19:00:01.631Z,6.00
2018-12-19T19:02:04.976Z,6.10
2018-12-19T19:04:07.702Z,6.20
2018-12-19T19:06:13.352Z,6.30
2018-12-19T19:08:16.012Z,6.30
2018-12-19T19:10:18.811Z,6.40
2018-12-19T19:12:21.410Z,6.40
2018-12-19T19:14:24.500Z,6.40
2018-12-19T19:16:27.108Z,6.40
2018-12-19T19:18:29.709Z,6.40
2018-12-19T19:20:32.339Z,6.40
2018-12-19T19:22:35.699Z,6.50
2018-12-19T19:24:38.349Z,6.40
2018-12-19T19:26:40.964Z,6.50
2018-12-19T19:28:43.590Z,6.40
2018-12-19T19:30:46.193Z,6.50
2018-12-19T19:32:48.838Z,6.50
2018-12-19T19:34:51.415Z,6.50
2018-12-19T19:36:54.008Z,6.40
2018-12-19T19:38:56.611Z,6.50
2018-12-19T19:40:59.191Z,6.40
2018-12-19T19:43:01.810Z,6.50
2018-12-19T19:45:05.491Z,6.50
2018-12-19T19:47:08.103Z,6.50
2018-12-19T19:49:10.805Z,6.50
2018-12-19T19:51:16.900Z,6.50
2018-12-19T19:53:18.038Z,6.50
2018-12-19T19:55:20.712Z,6.50
2018-12-19T19:57:24.334Z,6.50
2018-12-19T19:59:26.941Z,6.50
2018-12-19T20:01:29.530Z,6.50
2018-12-19T20:03:32.246Z,6.50
2018-12-19T20:05:34.857Z,6.60
2018-12-19T20:07:37.476Z,6.50
2018-12-19T20:09:40.092Z,6.50
2018-12-19T20:11:42.680Z,6.50
2018-12-19T20:13:45.293Z,6.60
2018-12-19T20:15:47.867Z,6.60
2018-12-19T20:17:50.468Z,6.60
2018-12-19T20:19:53.317Z,6.60
2018-12-19T20:21:55.920Z,6.50
2018-12-19T20:23:58.591Z,6.60
2018-12-19T20:26:01.225Z,6.60
2018-12-19T20:28:03.827Z,6.60
2018-12-19T20:30:08.546Z,6.60
2018-12-19T20:32:11.230Z,6.60
2018-12-19T20:34:13.871Z,6.50
2018-12-19T20:36:16.450Z,6.50
2018-12-19T20:38:19.122Z,6.50
2018-12-19T20:40:21.732Z,6.50
2018-12-19T20:42:24.360Z,6.50
2018-12-19T20:44:27.011Z,6.50
2018-12-19T20:46:29.586Z,6.50
2018-12-19T20:48:32.200Z,6.50
2018-12-19T20:50:35.994Z,6.50
2018-12-19T20:52:40.733Z,6.50
2018-12-19T20:54:43.697Z,6.50
2018-12-19T20:56:46.308Z,6.50
2018-12-19T20:58:49.719Z,6.40
2018-12-19T21:00:52.968Z,6.40
2018-12-19T21:02:55.563Z,6.40
2018-12-19T21:04:58.304Z,6.40
2018-12-19T21:07:02.193Z,6.40
2018-12-19T21:09:06.459Z,6.40
2018-12-19T21:11:09.083Z,6.40
2018-12-19T21:13:14.720Z,6.30
2018-12-19T21:15:17.392Z,6.30
2018-12-19T21:17:25.657Z,6.30
2018-12-19T21:19:35.258Z,6.30
2018-12-19T21:21:39.296Z,6.20
2018-12-19T21:23:41.873Z,6.30
2018-12-19T21:25:44.590Z,6.30
2018-12-19T21:27:47.214Z,6.30
2018-12-19T21:29:49.806Z,6.20
2018-12-19T21:31:52.466Z,6.20
2018-12-19T21:33:55.862Z,6.20
2018-12-19T21:35:58.555Z,6.20
2018-12-19T21:38:01.134Z,6.30
2018-12-19T21:40:04.714Z,6.40
2018-12-19T21:42:07.957Z,6.30
2018-12-19T21:44:12.317Z,6.40
2018-12-19T21:46:15.243Z,6.40
2018-12-19T21:48:18.037Z,6.40
2018-12-19T21:50:21.079Z,6.50
2018-12-19T21:52:23.958Z,6.50
2018-12-19T21:54:26.725Z,6.50
2018-12-19T21:56:30.727Z,6.50
2018-12-19T21:58:33.936Z,6.50
2018-12-19T22:00:37.017Z,6.60
2018-12-19T22:02:39.757Z,6.60
2018-12-19T22:04:42.397Z,6.60
2018-12-19T22:06:49.523Z,6.60
2018-12-19T22:08:52.305Z,6.60
2018-12-19T22:10:55.684Z,6.60
2018-12-19T22:12:58.389Z,6.70
2018-12-19T22:15:01.648Z,6.70
2018-12-19T22:17:09.900Z,6.70
2018-12-19T22:19:12.696Z,6.70
2018-12-19T22:21:15.578Z,6.70
2018-12-19T22:23:18.372Z,6.70
2018-12-19T22:25:21.020Z,6.70
2018-12-19T22:27:24.833Z,6.70
2018-12-19T22:29:27.415Z,6.70
2018-12-19T22:31:31.209Z,6.70
2018-12-19T22:33:33.841Z,6.80
2018-12-19T22:35:37.377Z,6.80
2018-12-19T22:37:40.007Z,6.70
2018-12-19T22:39:42.588Z,6.70
2018-12-19T22:41:45.226Z,6.70
2018-12-19T22:43:47.899Z,6.80
2018-12-19T22:45:50.800Z,6.80
2018-12-19T22:47:53.485Z,6.80
2018-12-19T22:49:56.107Z,6.80
2018-12-19T22:51:59.936Z,6.80
2018-12-19T22:54:02.612Z,6.90
2018-12-19T22:56:05.824Z,6.90
2018-12-19T22:58:08.591Z,6.90
2018-12-19T23:00:13.652Z,6.90
2018-12-19T23:02:21.932Z,6.90
2018-12-19T23:04:24.712Z,6.90
2018-12-19T23:06:27.447Z,6.90
2018-12-19T23:08:30.217Z,6.80
2018-12-19T23:10:32.972Z,6.90
2018-12-19T23:12:35.617Z,6.80
2018-12-19T23:14:38.354Z,6.90
2018-12-19T23:16:40.970Z,6.80
2018-12-19T23:18:43.690Z,6.70
2018-12-19T23:20:46.529Z,6.70
2018-12-19T23:22:49.312Z,6.70
2018-12-19T23:24:51.976Z,6.70
2018-12-19T23:26:54.670Z,6.60
2018-12-19T23:29:05.029Z,6.60
2018-12-19T23:31:07.751Z,6.60
2018-12-19T23:33:10.370Z,6.60
2018-12-19T23:35:13.007Z,6.70
2018-12-19T23:37:15.694Z,6.60
2018-12-19T23:39:18.319Z,6.60
2018-12-19T23:41:20.928Z,6.70
2018-12-19T23:43:23.653Z,6.80
2018-12-19T23:45:26.304Z,6.80
2018-12-19T23:47:28.957Z,6.80
2018-12-19T23:49:31.657Z,6.80
2018-12-19T23:51:34.443Z,6.80
2018-12-19T23:53:37.262Z,6.80
2018-12-19T23:55:40.077Z,6.80
2018-12-19T23:57:42.714Z,6.80
2018-12-19T23:59:45.459Z,6.80
